sensor_id;sensor_type;location;lat;lon;timestamp;pressure;altitude;pressure_sealevel;temperature;humidity
56876;BME280;42622;49.972;8.452;2022-08-19T00:01:57;100251.22;;;20.77;70.21
56876;BME280;42622;49.972;8.452;2022-08-19T00:04:33;100264.16;;;20.82;70.31
56876;BME280;42622;49.972;8.452;2022-08-19T00:07:04;100264.66;;;20.86;69.59
56876;BME280;42622;49.972;8.452;2022-08-19T00:09:31;100261.97;;;20.86;69.78
56876;BME280;42622;49.972;8.452;2022-08-19T00:11:58;100265.50;;;20.86;69.85
56876;BME280;42622;49.972;8.452;2022-08-19T00:14:26;100260.13;;;20.86;69.43
56876;BME280;42622;49.972;8.452;2022-08-19T00:16:57;100261.78;;;20.87;69.73
56876;BME280;42622;49.972;8.452;2022-08-19T00:19:23;100256.41;;;20.87;69.43
56876;BME280;42622;49.972;8.452;2022-08-19T00:21:52;100251.03;;;20.87;68.96
56876;BME280;42622;49.972;8.452;2022-08-19T00:24:18;100248.34;;;20.87;69.21
56876;BME280;42622;49.972;8.452;2022-08-19T00:26:45;100251.03;;;20.87;68.99
56876;BME280;42622;49.972;8.452;2022-08-19T00:29:14;100241.47;;;20.85;69.01
56876;BME280;42622;49.972;8.452;2022-08-19T00:31:44;100241.31;;;20.86;69.24
56876;BME280;42622;49.972;8.452;2022-08-19T00:34:13;100247.50;;;20.87;69.31
56876;BME280;42622;49.972;8.452;2022-08-19T00:36:42;100241.13;;;20.88;69.26
56876;BME280;42622;49.972;8.452;2022-08-19T00:39:09;100234.25;;;20.85;68.61
56876;BME280;42622;49.972;8.452;2022-08-19T00:41:36;100231.75;;;20.84;68.88
56876;BME280;42622;49.972;8.452;2022-08-19T00:44:09;100229.88;;;20.84;69.22
56876;BME280;42622;49.972;8.452;2022-08-19T00:46:42;100228.22;;;20.83;69.25
56876;BME280;42622;49.972;8.452;2022-08-19T00:52:12;100229.41;;;20.81;68.98
56876;BME280;42622;49.972;8.452;2022-08-19T00:54:45;100218.66;;;20.81;68.63
56876;BME280;42622;49.972;8.452;2022-08-19T00:57:18;100208.75;;;20.81;69.06
56876;BME280;42622;49.972;8.452;2022-08-19T00:59:54;100201.69;;;20.80;69.05
56876;BME280;42622;49.972;8.452;2022-08-19T01:02:24;100196.31;;;20.80;68.63
56876;BME280;42622;49.972;8.452;2022-08-19T01:04:51;100196.31;;;20.80;68.85
56876;BME280;42622;49.972;8.452;2022-08-19T01:07:17;100183.09;;;20.79;68.39
56876;BME280;42622;49.972;8.452;2022-08-19T01:09:43;100186.75;;;20.77;68.46
56876;BME280;42622;49.972;8.452;2022-08-19T01:12:09;100191.28;;;20.77;68.80
56876;BME280;42622;49.972;8.452;2022-08-19T01:14:39;100201.41;;;20.75;68.41
56876;BME280;42622;49.972;8.452;2022-08-19T01:17:09;100205.94;;;20.74;68.69
56876;BME280;42622;49.972;8.452;2022-08-19T01:19:42;100210.44;;;20.74;68.77
56876;BME280;42622;49.972;8.452;2022-08-19T01:22:28;100206.78;;;20.75;68.83
56876;BME280;42622;49.972;8.452;2022-08-19T01:24:57;100200.56;;;20.74;68.99
56876;BME280;42622;49.972;8.452;2022-08-19T01:27:23;100201.41;;;20.75;68.91
56876;BME280;42622;49.972;8.452;2022-08-19T01:29:49;100200.56;;;20.74;68.80
56876;BME280;42622;49.972;8.452;2022-08-19T01:32:16;100200.72;;;20.73;68.79
56876;BME280;42622;49.972;8.452;2022-08-19T01:34:42;100193.84;;;20.70;69.64
56876;BME280;42622;49.972;8.452;2022-08-19T01:37:13;100191.53;;;20.67;69.13
56876;BME280;42622;49.972;8.452;2022-08-19T01:39:41;100192.72;;;20.65;69.60
56876;BME280;42622;49.972;8.452;2022-08-19T01:42:08;100183.16;;;20.62;69.89
56876;BME280;42622;49.972;8.452;2022-08-19T01:44:39;100198.44;;;20.62;69.40
56876;BME280;42622;49.972;8.452;2022-08-19T01:47:08;100204.97;;;20.59;69.43
56876;BME280;42622;49.972;8.452;2022-08-19T01:49:36;100202.28;;;20.59;69.30
56876;BME280;42622;49.972;8.452;2022-08-19T01:52:05;100200.81;;;20.57;69.77
56876;BME280;42622;49.972;8.452;2022-08-19T01:54:31;100199.13;;;20.56;70.20
56876;BME280;42622;49.972;8.452;2022-08-19T01:57:10;100205.72;;;20.53;69.63
56876;BME280;42622;49.972;8.452;2022-08-19T01:59:42;100208.53;;;20.51;69.93
56876;BME280;42622;49.972;8.452;2022-08-19T02:02:10;100215.06;;;20.49;70.43
56876;BME280;42622;49.972;8.452;2022-08-19T02:04:37;100208.03;;;20.48;70.24
56876;BME280;42622;49.972;8.452;2022-08-19T02:07:05;100216.28;;;20.46;69.86
56876;BME280;42622;49.972;8.452;2022-08-19T02:09:34;100207.53;;;20.44;70.33
56876;BME280;42622;49.972;8.452;2022-08-19T02:12:00;100203.19;;;20.43;70.72
56876;BME280;42622;49.972;8.452;2022-08-19T02:14:26;100204.34;;;20.41;70.62
56876;BME280;42622;49.972;8.452;2022-08-19T02:16:52;100208.56;;;20.35;70.95
56876;BME280;42622;49.972;8.452;2022-08-19T02:19:18;100222.00;;;20.27;71.50
56876;BME280;42622;49.972;8.452;2022-08-19T02:21:44;100221.53;;;20.23;72.04
56876;BME280;42622;49.972;8.452;2022-08-19T02:24:10;100223.38;;;20.23;71.94
56876;BME280;42622;49.972;8.452;2022-08-19T02:26:36;100212.44;;;20.24;71.72
56876;BME280;42622;49.972;8.452;2022-08-19T02:29:02;100217.47;;;20.27;72.22
56876;BME280;42622;49.972;8.452;2022-08-19T02:31:29;100209.28;;;20.29;71.97
56876;BME280;42622;49.972;8.452;2022-08-19T02:33:56;100219.00;;;20.30;72.08
56876;BME280;42622;49.972;8.452;2022-08-19T02:36:25;100206.41;;;20.30;72.29
56876;BME280;42622;49.972;8.452;2022-08-19T02:38:53;100220.00;;;20.29;72.18
56876;BME280;42622;49.972;8.452;2022-08-19T02:41:29;100214.63;;;20.29;72.71
56876;BME280;42622;49.972;8.452;2022-08-19T02:44:01;100227.38;;;20.27;72.81
56876;BME280;42622;49.972;8.452;2022-08-19T02:46:32;100220.34;;;20.26;72.87
56876;BME280;42622;49.972;8.452;2022-08-19T02:49:08;100217.47;;;20.27;72.67
56876;BME280;42622;49.972;8.452;2022-08-19T02:51:38;100224.34;;;20.30;72.64
56876;BME280;42622;49.972;8.452;2022-08-19T02:54:08;100228.72;;;20.31;72.67
56876;BME280;42622;49.972;8.452;2022-08-19T02:56:38;100230.22;;;20.34;72.73
56876;BME280;42622;49.972;8.452;2022-08-19T02:59:06;100235.41;;;20.35;72.75
56876;BME280;42622;49.972;8.452;2022-08-19T03:01:34;100227.72;;;20.32;72.45
56876;BME280;42622;49.972;8.452;2022-08-19T03:04:04;100223.34;;;20.31;72.72
56876;BME280;42622;49.972;8.452;2022-08-19T03:06:31;100231.56;;;20.29;72.52
56876;BME280;42622;49.972;8.452;2022-08-19T03:08:58;100231.91;;;20.26;72.63
56876;BME280;42622;49.972;8.452;2022-08-19T03:11:28;100221.38;;;20.25;72.73
56876;BME280;42622;49.972;8.452;2022-08-19T03:13:58;100226.06;;;20.23;73.01
56876;BME280;42622;49.972;8.452;2022-08-19T03:16:30;100231.44;;;20.23;72.48
56876;BME280;42622;49.972;8.452;2022-08-19T03:18:58;100228.06;;;20.21;72.62
56876;BME280;42622;49.972;8.452;2022-08-19T03:21:29;100226.72;;;20.17;72.97
56876;BME280;42622;49.972;8.452;2022-08-19T03:24:02;100234.97;;;20.15;72.99
56876;BME280;42622;49.972;8.452;2022-08-19T03:26:30;100231.59;;;20.13;72.76
56876;BME280;42622;49.972;8.452;2022-08-19T03:28:57;100237.50;;;20.09;73.38
56876;BME280;42622;49.972;8.452;2022-08-19T03:31:28;100232.13;;;20.09;73.43
56876;BME280;42622;49.972;8.452;2022-08-19T03:33:54;100226.75;;;20.09;73.02
56876;BME280;42622;49.972;8.452;2022-08-19T03:36:26;100229.63;;;20.07;72.86
56876;BME280;42622;49.972;8.452;2022-08-19T03:38:56;100223.72;;;20.03;72.99
56876;BME280;42622;49.972;8.452;2022-08-19T03:41:30;100225.09;;;19.99;73.57
56876;BME280;42622;49.972;8.452;2022-08-19T03:43:59;100228.28;;;19.95;73.55
56876;BME280;42622;49.972;8.452;2022-08-19T03:46:31;100229.63;;;19.91;73.30
56876;BME280;42622;49.972;8.452;2022-08-19T03:49:01;100236.16;;;19.88;73.83
56876;BME280;42622;49.972;8.452;2022-08-19T03:51:36;100234.66;;;19.86;73.35
56876;BME280;42622;49.972;8.452;2022-08-19T03:54:10;100228.78;;;19.82;73.69
56876;BME280;42622;49.972;8.452;2022-08-19T03:56:40;100232.50;;;19.81;73.58
56876;BME280;42622;49.972;8.452;2022-08-19T03:59:17;100245.25;;;19.79;74.52
56876;BME280;42622;49.972;8.452;2022-08-19T04:01:45;100245.59;;;19.76;74.51
56876;BME280;42622;49.972;8.452;2022-08-19T04:04:11;100245.72;;;19.74;74.13
56876;BME280;42622;49.972;8.452;2022-08-19T04:06:39;100245.91;;;19.73;74.65
56876;BME280;42622;49.972;8.452;2022-08-19T04:09:08;100251.59;;;19.70;74.34
56876;BME280;42622;49.972;8.452;2022-08-19T04:11:40;100248.25;;;19.68;74.55
56876;BME280;42622;49.972;8.452;2022-08-19T04:14:09;100254.47;;;19.68;74.89
56876;BME280;42622;49.972;8.452;2022-08-19T04:16:37;100260.66;;;19.69;75.17
56876;BME280;42622;49.972;8.452;2022-08-19T04:19:04;100258.31;;;19.66;75.04
56876;BME280;42622;49.972;8.452;2022-08-19T04:21:32;100258.66;;;19.63;75.19
56876;BME280;42622;49.972;8.452;2022-08-19T04:24:00;100257.94;;;19.61;74.86
56876;BME280;42622;49.972;8.452;2022-08-19T04:26:31;100245.88;;;19.56;75.40
56876;BME280;42622;49.972;8.452;2022-08-19T04:29:05;100249.88;;;19.52;75.34
56876;BME280;42622;49.972;8.452;2022-08-19T04:31:35;100252.06;;;19.49;76.01
56876;BME280;42622;49.972;8.452;2022-08-19T04:34:06;100256.75;;;19.47;75.91
56876;BME280;42622;49.972;8.452;2022-08-19T04:36:37;100251.88;;;19.42;76.28
56876;BME280;42622;49.972;8.452;2022-08-19T04:39:12;100254.88;;;19.39;75.81
56876;BME280;42622;49.972;8.452;2022-08-19T04:41:43;100256.09;;;19.37;76.01
56876;BME280;42622;49.972;8.452;2022-08-19T04:44:32;100261.59;;;19.35;76.76
56876;BME280;42622;49.972;8.452;2022-08-19T04:47:00;100257.91;;;19.36;76.59
56876;BME280;42622;49.972;8.452;2022-08-19T04:49:30;100254.06;;;19.39;76.23
56876;BME280;42622;49.972;8.452;2022-08-19T04:51:56;100258.25;;;19.41;76.54
56876;BME280;42622;49.972;8.452;2022-08-19T04:54:24;100264.44;;;19.42;76.86
56876;BME280;42622;49.972;8.452;2022-08-19T04:56:53;100267.97;;;19.42;76.46
56876;BME280;42622;49.972;8.452;2022-08-19T04:59:20;100277.34;;;19.46;76.89
56876;BME280;42622;49.972;8.452;2022-08-19T05:01:47;100271.84;;;19.48;76.72
56876;BME280;42622;49.972;8.452;2022-08-19T05:04:17;100273.19;;;19.52;76.58
56876;BME280;42622;49.972;8.452;2022-08-19T05:06:47;100265.47;;;19.57;76.65
56876;BME280;42622;49.972;8.452;2022-08-19T05:09:15;100263.28;;;19.61;76.40
56876;BME280;42622;49.972;8.452;2022-08-19T05:11:42;100258.31;;;19.66;76.71
56876;BME280;42622;49.972;8.452;2022-08-19T05:14:09;100262.34;;;19.70;76.47
56876;BME280;42622;49.972;8.452;2022-08-19T05:16:39;100260.34;;;19.72;76.23
56876;BME280;42622;49.972;8.452;2022-08-19T05:19:05;100275.75;;;19.78;76.51
56876;BME280;42622;49.972;8.452;2022-08-19T05:21:59;100278.78;;;19.83;76.26
56876;BME280;42622;49.972;8.452;2022-08-19T05:24:44;100278.25;;;19.88;76.21
56876;BME280;42622;49.972;8.452;2022-08-19T05:27:10;100269.69;;;19.92;76.19
56876;BME280;42622;49.972;8.452;2022-08-19T05:29:36;100268.84;;;20.00;76.13
56876;BME280;42622;49.972;8.452;2022-08-19T05:32:04;100280.44;;;20.09;75.77
56876;BME280;42622;49.972;8.452;2022-08-19T05:34:34;100271.72;;;20.15;75.87
56876;BME280;42622;49.972;8.452;2022-08-19T05:37:03;100272.72;;;20.22;75.78
56876;BME280;42622;49.972;8.452;2022-08-19T05:39:34;100278.38;;;20.27;75.53
56876;BME280;42622;49.972;8.452;2022-08-19T05:42:06;100290.81;;;20.36;75.31
56876;BME280;42622;49.972;8.452;2022-08-19T05:44:39;100282.03;;;20.42;75.27
56876;BME280;42622;49.972;8.452;2022-08-19T05:47:13;100278.56;;;20.50;74.87
56876;BME280;42622;49.972;8.452;2022-08-19T05:49:42;100272.97;;;20.60;74.50
56876;BME280;42622;49.972;8.452;2022-08-19T05:52:15;100283.34;;;20.71;74.66
56876;BME280;42622;49.972;8.452;2022-08-19T05:54:43;100277.28;;;20.77;73.85
56876;BME280;42622;49.972;8.452;2022-08-19T05:57:10;100288.34;;;20.82;74.11
56876;BME280;42622;49.972;8.452;2022-08-19T05:59:36;100286.97;;;20.86;74.03
56876;BME280;42622;49.972;8.452;2022-08-19T06:02:05;100300.56;;;20.93;73.50
56876;BME280;42622;49.972;8.452;2022-08-19T06:04:32;100313.13;;;21.00;73.72
56876;BME280;42622;49.972;8.452;2022-08-19T06:06:58;100303.53;;;21.06;73.06
56876;BME280;42622;49.972;8.452;2022-08-19T06:09:24;100308.69;;;21.16;73.11
56876;BME280;42622;49.972;8.452;2022-08-19T06:11:58;100311.34;;;21.24;72.51
56876;BME280;42622;49.972;8.452;2022-08-19T06:14:32;100307.28;;;21.28;72.27
56876;BME280;42622;49.972;8.452;2022-08-19T06:17:01;100319.50;;;21.31;72.22
56876;BME280;42622;49.972;8.452;2022-08-19T06:19:30;100325.56;;;21.33;72.40
56876;BME280;42622;49.972;8.452;2022-08-19T06:21:59;100331.47;;;21.36;71.88
56876;BME280;42622;49.972;8.452;2022-08-19T06:24:28;100342.53;;;21.41;71.81
56876;BME280;42622;49.972;8.452;2022-08-19T06:26:59;100337.09;;;21.50;71.74
56876;BME280;42622;49.972;8.452;2022-08-19T06:29:27;100344.09;;;21.59;71.18
56876;BME280;42622;49.972;8.452;2022-08-19T06:31:57;100344.53;;;21.70;70.70
56876;BME280;42622;49.972;8.452;2022-08-19T06:34:28;100347.97;;;21.87;70.91
56876;BME280;42622;49.972;8.452;2022-08-19T06:36:59;100350.44;;;22.12;70.04
56876;BME280;42622;49.972;8.452;2022-08-19T06:39:35;100355.66;;;22.36;69.36
56876;BME280;42622;49.972;8.452;2022-08-19T06:42:06;100370.75;;;22.75;68.02
56876;BME280;42622;49.972;8.452;2022-08-19T06:44:38;100363.81;;;23.10;67.24
56876;BME280;42622;49.972;8.452;2022-08-19T06:47:09;100356.94;;;23.59;65.40
56876;BME280;42622;49.972;8.452;2022-08-19T06:49:37;100357.81;;;24.02;64.38
56876;BME280;42622;49.972;8.452;2022-08-19T06:52:05;100353.88;;;24.48;63.19
56876;BME280;42622;49.972;8.452;2022-08-19T06:54:32;100360.38;;;24.82;61.79
56876;BME280;42622;49.972;8.452;2022-08-19T06:57:00;100367.34;;;25.04;60.72
56876;BME280;42622;49.972;8.452;2022-08-19T06:59:29;100373.25;;;25.14;59.73
56876;BME280;42622;49.972;8.452;2022-08-19T07:02:01;100374.59;;;25.32;58.91
56876;BME280;42622;49.972;8.452;2022-08-19T07:04:35;100365.50;;;25.52;57.49
56876;BME280;42622;49.972;8.452;2022-08-19T07:07:07;100360.97;;;25.66;57.24
56876;BME280;42622;49.972;8.452;2022-08-19T07:09:43;100370.19;;;25.85;56.02
56876;BME280;42622;49.972;8.452;2022-08-19T07:12:12;100370.22;;;25.98;55.47
56876;BME280;42622;49.972;8.452;2022-08-19T07:14:42;100370.47;;;26.23;55.23
56876;BME280;42622;49.972;8.452;2022-08-19T07:17:11;100381.91;;;26.39;54.53
56876;BME280;42622;49.972;8.452;2022-08-19T07:19:40;100374.00;;;26.64;53.63
56876;BME280;42622;49.972;8.452;2022-08-19T07:22:09;100382.56;;;26.67;54.07
56876;BME280;42622;49.972;8.452;2022-08-19T07:24:37;100384.44;;;26.74;53.28
56876;BME280;42622;49.972;8.452;2022-08-19T07:27:06;100376.94;;;26.76;53.05
56876;BME280;42622;49.972;8.452;2022-08-19T07:29:35;100375.88;;;26.63;53.19
56876;BME280;42622;49.972;8.452;2022-08-19T07:32:04;100363.59;;;26.41;53.15
56876;BME280;42622;49.972;8.452;2022-08-19T07:34:32;100361.09;;;26.33;53.48
56876;BME280;42622;49.972;8.452;2022-08-19T07:37:07;100362.97;;;26.26;52.81
56876;BME280;42622;49.972;8.452;2022-08-19T07:39:36;100362.94;;;26.39;53.42
56876;BME280;42622;49.972;8.452;2022-08-19T07:42:08;100362.34;;;26.50;53.02
56876;BME280;42622;49.972;8.452;2022-08-19T07:44:37;100369.84;;;26.68;53.04
56876;BME280;42622;49.972;8.452;2022-08-19T07:47:04;100368.94;;;26.94;52.04
56876;BME280;42622;49.972;8.452;2022-08-19T07:49:30;100370.59;;;27.02;51.88
56876;BME280;42622;49.972;8.452;2022-08-19T07:52:07;100361.81;;;27.06;51.78
56876;BME280;42622;49.972;8.452;2022-08-19T07:54:37;100372.25;;;27.16;51.35
56876;BME280;42622;49.972;8.452;2022-08-19T07:57:06;100373.50;;;27.13;51.35
56876;BME280;42622;49.972;8.452;2022-08-19T07:59:34;100373.91;;;27.17;51.70
56876;BME280;42622;49.972;8.452;2022-08-19T08:02:01;100367.47;;;27.18;51.20
56876;BME280;42622;49.972;8.452;2022-08-19T08:04:29;100368.06;;;27.13;51.76
56876;BME280;42622;49.972;8.452;2022-08-19T08:07:15;100373.94;;;27.04;51.84
56876;BME280;42622;49.972;8.452;2022-08-19T08:09:59;100363.06;;;27.17;51.83
56876;BME280;42622;49.972;8.452;2022-08-19T08:12:32;100382.88;;;27.24;51.61
56876;BME280;42622;49.972;8.452;2022-08-19T08:15:09;100378.91;;;27.20;51.87
56876;BME280;42622;49.972;8.452;2022-08-19T08:17:39;100382.72;;;27.12;52.33
56876;BME280;42622;49.972;8.452;2022-08-19T08:20:07;100372.47;;;27.01;52.00
56876;BME280;42622;49.972;8.452;2022-08-19T08:22:33;100382.75;;;26.86;51.89
56876;BME280;42622;49.972;8.452;2022-08-19T08:25:22;100377.34;;;26.79;52.32
56876;BME280;42622;49.972;8.452;2022-08-19T08:27:50;100381.06;;;26.85;52.36
56876;BME280;42622;49.972;8.452;2022-08-19T08:30:24;100378.97;;;27.00;51.46
56876;BME280;42622;49.972;8.452;2022-08-19T08:32:52;100377.69;;;26.96;51.19
56876;BME280;42622;49.972;8.452;2022-08-19T08:35:21;100386.47;;;26.91;51.87
56876;BME280;42622;49.972;8.452;2022-08-19T08:37:51;100382.28;;;27.15;51.57
56876;BME280;42622;49.972;8.452;2022-08-19T08:43:30;100384.34;;;27.78;49.46
56876;BME280;42622;49.972;8.452;2022-08-19T08:46:07;100380.31;;;27.81;48.93
56876;BME280;42622;49.972;8.452;2022-08-19T08:52:06;100392.66;;;28.15;47.77
56876;BME280;42622;49.972;8.452;2022-08-19T08:54:47;100386.72;;;28.25;47.42
56876;BME280;42622;49.972;8.452;2022-08-19T08:57:28;100387.31;;;28.27;47.25
56876;BME280;42622;49.972;8.452;2022-08-19T09:00:11;100387.56;;;28.25;47.60
56876;BME280;42622;49.972;8.452;2022-08-19T09:02:43;100384.28;;;28.17;47.74
56876;BME280;42622;49.972;8.452;2022-08-19T09:05:11;100390.19;;;28.07;48.10
56876;BME280;42622;49.972;8.452;2022-08-19T09:07:57;100387.28;;;28.02;48.84
56876;BME280;42622;49.972;8.452;2022-08-19T09:10:49;100384.09;;;28.11;48.46
56876;BME280;42622;49.972;8.452;2022-08-19T09:13:41;100389.34;;;28.13;47.42
56876;BME280;42622;49.972;8.452;2022-08-19T09:16:30;100388.03;;;28.16;46.91
56876;BME280;42622;49.972;8.452;2022-08-19T09:19:08;100385.63;;;28.01;46.23
56876;BME280;42622;49.972;8.452;2022-08-19T09:21:34;100381.81;;;27.77;46.82
56876;BME280;42622;49.972;8.452;2022-08-19T09:24:02;100381.22;;;27.68;47.22
56876;BME280;42622;49.972;8.452;2022-08-19T09:26:29;100387.47;;;27.69;47.06
56876;BME280;42622;49.972;8.452;2022-08-19T09:28:57;100369.09;;;27.71;46.78
56876;BME280;42622;49.972;8.452;2022-08-19T09:31:28;100364.50;;;27.78;45.76
56876;BME280;42622;49.972;8.452;2022-08-19T09:33:55;100363.53;;;27.91;46.54
56876;BME280;42622;49.972;8.452;2022-08-19T09:36:28;100365.91;;;27.80;46.69
56876;BME280;42622;49.972;8.452;2022-08-19T09:39:04;100367.41;;;27.70;47.77
56876;BME280;42622;49.972;8.452;2022-08-19T09:41:32;100375.78;;;27.68;47.17
56876;BME280;42622;49.972;8.452;2022-08-19T09:43:58;100377.91;;;27.59;45.87
56876;BME280;42622;49.972;8.452;2022-08-19T09:46:29;100384.19;;;27.60;46.76
56876;BME280;42622;49.972;8.452;2022-08-19T09:48:59;100371.56;;;27.79;46.71
56876;BME280;42622;49.972;8.452;2022-08-19T09:51:27;100380.78;;;28.09;46.52
56876;BME280;42622;49.972;8.452;2022-08-19T09:53:59;100378.72;;;28.30;46.21
56876;BME280;42622;49.972;8.452;2022-08-19T09:56:28;100383.28;;;28.36;45.74
56876;BME280;42622;49.972;8.452;2022-08-19T09:58:58;100365.09;;;28.36;45.71
56876;BME280;42622;49.972;8.452;2022-08-19T10:01:27;100368.41;;;28.45;45.43
56876;BME280;42622;49.972;8.452;2022-08-19T10:03:58;100375.53;;;28.65;45.07
56876;BME280;42622;49.972;8.452;2022-08-19T10:06:29;100367.84;;;28.80;44.89
56876;BME280;42622;49.972;8.452;2022-08-19T10:08:58;100367.06;;;28.73;44.45
56876;BME280;42622;49.972;8.452;2022-08-19T10:11:24;100357.69;;;28.69;44.72
56876;BME280;42622;49.972;8.452;2022-08-19T10:13:50;100365.31;;;28.35;45.29
56876;BME280;42622;49.972;8.452;2022-08-19T10:16:22;100368.28;;;28.02;46.16
56876;BME280;42622;49.972;8.452;2022-08-19T10:18:51;100370.78;;;28.03;45.80
56876;BME280;42622;49.972;8.452;2022-08-19T10:21:25;100362.78;;;28.08;45.53
56876;BME280;42622;49.972;8.452;2022-08-19T10:23:57;100360.41;;;28.19;45.63
56876;BME280;42622;49.972;8.452;2022-08-19T10:26:33;100362.06;;;28.20;45.21
56876;BME280;42622;49.972;8.452;2022-08-19T10:29:04;100364.50;;;28.34;44.90
56876;BME280;42622;49.972;8.452;2022-08-19T10:31:33;100370.19;;;28.51;44.51
56876;BME280;42622;49.972;8.452;2022-08-19T10:34:00;100365.63;;;28.52;44.58
56876;BME280;42622;49.972;8.452;2022-08-19T10:36:34;100371.88;;;28.52;45.17
56876;BME280;42622;49.972;8.452;2022-08-19T10:39:06;100365.16;;;28.55;45.33
56876;BME280;42622;49.972;8.452;2022-08-19T10:41:37;100359.19;;;28.65;44.57
56876;BME280;42622;49.972;8.452;2022-08-19T10:44:08;100361.72;;;28.66;44.89
56876;BME280;42622;49.972;8.452;2022-08-19T10:46:40;100356.50;;;28.83;45.19
56876;BME280;42622;49.972;8.452;2022-08-19T10:49:12;100359.56;;;29.12;43.82
56876;BME280;42622;49.972;8.452;2022-08-19T10:51:40;100353.50;;;29.28;43.66
56876;BME280;42622;49.972;8.452;2022-08-19T10:54:26;100362.38;;;29.23;43.20
56876;BME280;42622;49.972;8.452;2022-08-19T10:57:13;100360.72;;;29.22;42.34
56876;BME280;42622;49.972;8.452;2022-08-19T10:59:40;100353.03;;;29.31;41.89
56876;BME280;42622;49.972;8.452;2022-08-19T11:02:10;100345.44;;;29.51;42.30
56876;BME280;42622;49.972;8.452;2022-08-19T11:04:39;100334.53;;;29.70;42.36
56876;BME280;42622;49.972;8.452;2022-08-19T11:07:07;100337.63;;;29.85;41.83
56876;BME280;42622;49.972;8.452;2022-08-19T11:09:40;100330.53;;;29.84;41.49
56876;BME280;42622;49.972;8.452;2022-08-19T11:12:09;100330.78;;;29.83;40.59
56876;BME280;42622;49.972;8.452;2022-08-19T11:14:36;100330.66;;;29.89;40.75
56876;BME280;42622;49.972;8.452;2022-08-19T11:17:05;100323.94;;;30.04;40.13
56876;BME280;42622;49.972;8.452;2022-08-19T11:19:31;100311.00;;;29.99;39.87
56876;BME280;42622;49.972;8.452;2022-08-19T11:21:59;100320.00;;;29.88;40.38
56876;BME280;42622;49.972;8.452;2022-08-19T11:24:30;100311.56;;;29.89;40.03
56876;BME280;42622;49.972;8.452;2022-08-19T11:27:06;100312.56;;;30.07;39.54
56876;BME280;42622;49.972;8.452;2022-08-19T11:29:38;100306.28;;;30.06;39.80
56876;BME280;42622;49.972;8.452;2022-08-19T11:32:09;100315.22;;;29.71;39.71
56876;BME280;42622;49.972;8.452;2022-08-19T11:34:36;100306.22;;;29.71;39.17
56876;BME280;42622;49.972;8.452;2022-08-19T11:37:03;100297.56;;;29.74;39.37
56876;BME280;42622;49.972;8.452;2022-08-19T11:39:33;100290.09;;;29.69;39.50
56876;BME280;42622;49.972;8.452;2022-08-19T11:42:05;100278.38;;;29.69;39.88
56876;BME280;42622;49.972;8.452;2022-08-19T11:44:51;100276.94;;;29.06;39.86
56876;BME280;42622;49.972;8.452;2022-08-19T11:47:19;100280.50;;;28.70;40.94
56876;BME280;42622;49.972;8.452;2022-08-19T11:49:46;100280.16;;;28.96;41.20
56876;BME280;42622;49.972;8.452;2022-08-19T11:52:12;100270.88;;;29.22;40.81
56876;BME280;42622;49.972;8.452;2022-08-19T11:54:38;100268.88;;;29.29;40.86
56876;BME280;42622;49.972;8.452;2022-08-19T11:57:04;100277.16;;;29.04;40.36
56876;BME280;42622;49.972;8.452;2022-08-19T11:59:30;100267.75;;;29.19;40.53
56876;BME280;42622;49.972;8.452;2022-08-19T12:01:56;100276.03;;;29.54;40.47
56876;BME280;42622;49.972;8.452;2022-08-19T12:04:23;100274.63;;;29.93;39.62
56876;BME280;42622;49.972;8.452;2022-08-19T12:06:49;100280.38;;;30.27;39.27
56876;BME280;42622;49.972;8.452;2022-08-19T12:09:16;100291.63;;;30.54;39.35
56876;BME280;42622;49.972;8.452;2022-08-19T12:11:43;100283.41;;;30.66;38.30
56876;BME280;42622;49.972;8.452;2022-08-19T12:14:12;100280.94;;;30.41;37.73
56876;BME280;42622;49.972;8.452;2022-08-19T12:16:40;100280.13;;;30.29;37.75
56876;BME280;42622;49.972;8.452;2022-08-19T12:19:07;100280.13;;;30.40;36.96
56876;BME280;42622;49.972;8.452;2022-08-19T12:21:35;100279.75;;;30.60;36.55
56876;BME280;42622;49.972;8.452;2022-08-19T12:24:04;100276.56;;;30.75;36.31
56876;BME280;42622;49.972;8.452;2022-08-19T12:26:31;100271.31;;;30.62;36.77
56876;BME280;42622;49.972;8.452;2022-08-19T12:28:58;100266.91;;;30.84;36.66
56876;BME280;42622;49.972;8.452;2022-08-19T12:31:27;100273.91;;;30.80;36.43
56876;BME280;42622;49.972;8.452;2022-08-19T12:33:54;100277.41;;;30.40;36.41
56876;BME280;42622;49.972;8.452;2022-08-19T12:36:20;100265.47;;;29.76;37.19
56876;BME280;42622;49.972;8.452;2022-08-19T12:38:47;100270.63;;;29.24;37.73
56876;BME280;42622;49.972;8.452;2022-08-19T12:41:16;100270.38;;;29.25;38.21
56876;BME280;42622;49.972;8.452;2022-08-19T12:43:44;100259.16;;;29.64;37.62
56876;BME280;42622;49.972;8.452;2022-08-19T12:46:11;100255.91;;;30.09;36.34
56876;BME280;42622;49.972;8.452;2022-08-19T12:48:39;100267.75;;;29.79;36.49
56876;BME280;42622;49.972;8.452;2022-08-19T12:51:15;100264.84;;;29.32;36.92
56876;BME280;42622;49.972;8.452;2022-08-19T12:53:45;100260.50;;;29.43;37.65
56876;BME280;42622;49.972;8.452;2022-08-19T12:56:13;100266.53;;;29.33;38.12
56876;BME280;42622;49.972;8.452;2022-08-19T12:58:41;100260.44;;;29.61;38.07
56876;BME280;42622;49.972;8.452;2022-08-19T13:01:15;100255.41;;;29.76;37.23
56876;BME280;42622;49.972;8.452;2022-08-19T13:03:45;100256.09;;;29.12;37.65
56876;BME280;42622;49.972;8.452;2022-08-19T13:06:12;100250.88;;;28.80;38.59
56876;BME280;42622;49.972;8.452;2022-08-19T13:08:38;100243.94;;;29.14;38.17
56876;BME280;42622;49.972;8.452;2022-08-19T13:11:22;100253.72;;;29.64;38.29
56876;BME280;42622;49.972;8.452;2022-08-19T13:13:51;100258.44;;;30.22;37.18
56876;BME280;42622;49.972;8.452;2022-08-19T13:16:19;100271.94;;;30.40;35.84